Round Lake, Minnesota
Current Conditions -  °F | °C
As of 5:35 PM on Monday 20 Oct 2014 (Local Time) from KOTG Reporting Station
Clear Clear  
Wind Chill: 66°   Ceiling: Unl
Heat Index: 66°   Visibility: 10mi
Dew Point: 37°   Wind: 9mph
Humidity: 35%   Direction: 320°NW
Pressure: 30.04"   Gusts: NA
Location:  43.54°N, 95.47°W
Report Text: KOTG 202235Z AUTO 32008KT 10SM CLR 19/03 A3004 RMK AO1
Loading
Personal Weather Stations






























Interactive Weather Map
Tropical Storm Tracking
New forecast layout! Learn more

10-Day Weather Forecast

Advertisements
Track Severe Weather on mobile